GTAJB EGPF-EGPH

Flight info

Callsign GTAJB
Flight time 0h 25m
Altitude 7000
Route DCT
Aircraft H145/L-SDFGRY/C

Departure

Time 2026-04-22 17:23
Airport Glasgow Airport (EGPF)

Arrival

Time 2026-04-22 17:48
Airport Edinburgh Airport (EGPH)
Time Latitude Longitude Altitude Speed Heading
2026-04-22 16:58 55.87109 -4.42581 28 ft 0 kts 85°
2026-04-22 16:59 55.87109 -4.42582 28 ft 0 kts 85°
2026-04-22 17:01 55.87109 -4.42583 28 ft 0 kts 85°
2026-04-22 17:03 55.87109 -4.42584 28 ft 0 kts 85°
2026-04-22 17:05 55.87109 -4.42585 28 ft 0 kts 85°
2026-04-22 17:07 55.87109 -4.42586 28 ft 0 kts 85°
2026-04-22 17:09 55.87109 -4.42587 28 ft 0 kts 85°
2026-04-22 17:11 55.87109 -4.42588 28 ft 0 kts 85°
2026-04-22 17:13 55.87109 -4.42589 28 ft 0 kts 85°
2026-04-22 17:15 55.87109 -4.42590 28 ft 0 kts 85°
2026-04-22 17:17 55.87109 -4.42591 28 ft 0 kts 85°
2026-04-22 17:19 55.87109 -4.42592 28 ft 0 kts 85°
2026-04-22 17:22 55.87109 -4.42593 28 ft 0 kts 85°
2026-04-22 17:22 55.87058 -4.42348 303 ft 36 kts 87°
2026-04-22 17:23 55.86999 -4.41715 541 ft 67 kts 88°
2026-04-22 17:23 55.86148 -4.40375 1069 ft 89 kts 134°
2026-04-22 17:23 55.85553 -4.39765 1316 ft 104 kts 142°
2026-04-22 17:24 55.84798 -4.39734 1443 ft 115 kts 182°
2026-04-22 17:24 55.84045 -4.40129 1483 ft 110 kts 174°
2026-04-22 17:24 55.83358 -4.39828 1509 ft 96 kts 135°
2026-04-22 17:24 55.82905 -4.39014 1511 ft 94 kts 126°
2026-04-22 17:25 55.82288 -4.38525 1522 ft 102 kts 152°
2026-04-22 17:25 55.81605 -4.38206 1520 ft 102 kts 153°
2026-04-22 17:25 55.80915 -4.37893 1517 ft 103 kts 153°
2026-04-22 17:25 55.80237 -4.37584 1517 ft 104 kts 153°
2026-04-22 17:26 55.79541 -4.37253 1523 ft 104 kts 153°
2026-04-22 17:26 55.78866 -4.36853 1521 ft 99 kts 140°
2026-04-22 17:26 55.78350 -4.36124 1523 ft 95 kts 129°
2026-04-22 17:26 55.77850 -4.35334 1522 ft 95 kts 128°
2026-04-22 17:27 55.77533 -4.34832 1519 ft 94 kts 129°
2026-04-22 17:27 55.77136 -4.33561 1520 ft 87 kts 92°
2026-04-22 17:27 55.77103 -4.32494 1511 ft 87 kts 89°
2026-04-22 17:27 55.77085 -4.31420 1503 ft 91 kts 90°
2026-04-22 17:28 55.77064 -4.30235 1520 ft 96 kts 90°
2026-04-22 17:28 55.77049 -4.29063 1516 ft 95 kts 90°
2026-04-22 17:28 55.77039 -4.27879 1514 ft 96 kts 89°
2026-04-22 17:28 55.77030 -4.26706 1507 ft 97 kts 90°
2026-04-22 17:29 55.77033 -4.25501 1513 ft 97 kts 89°
2026-04-22 17:29 55.77026 -4.24307 1516 ft 98 kts 89°
2026-04-22 17:29 55.77001 -4.23105 1513 ft 97 kts 89°
2026-04-22 17:29 55.76975 -4.21900 1516 ft 98 kts 90°
2026-04-22 17:30 55.77014 -4.20745 1512 ft 98 kts 75°
2026-04-22 17:30 55.77359 -4.19750 1517 ft 99 kts 57°
2026-04-22 17:30 55.77837 -4.18849 1508 ft 101 kts 53°
2026-04-22 17:30 55.78320 -4.17952 1511 ft 99 kts 54°
2026-04-22 17:31 55.78783 -4.17008 1510 ft 104 kts 55°
2026-04-22 17:31 55.79241 -4.16001 1505 ft 109 kts 56°
2026-04-22 17:31 55.79549 -4.15289 1517 ft 109 kts 56°
2026-04-22 17:31 55.80010 -4.14207 1513 ft 108 kts 57°
2026-04-22 17:32 55.80452 -4.13154 1511 ft 106 kts 57°
2026-04-22 17:32 55.80888 -4.12102 1508 ft 107 kts 59°
2026-04-22 17:32 55.81329 -4.11026 1516 ft 108 kts 58°
2026-04-22 17:32 55.81754 -4.09997 1519 ft 108 kts 58°
2026-04-22 17:33 55.82200 -4.08925 1511 ft 108 kts 57°
2026-04-22 17:33 55.82640 -4.07867 1515 ft 105 kts 57°
2026-04-22 17:33 55.83075 -4.06812 1507 ft 107 kts 58°
2026-04-22 17:33 55.83513 -4.05743 1516 ft 106 kts 58°
2026-04-22 17:34 55.83937 -4.04709 1514 ft 106 kts 59°
2026-04-22 17:34 55.84370 -4.03664 1512 ft 104 kts 59°
2026-04-22 17:34 55.84787 -4.02659 1510 ft 104 kts 59°
2026-04-22 17:34 55.85220 -4.01607 1511 ft 107 kts 59°
2026-04-22 17:35 55.85663 -4.00529 1524 ft 107 kts 59°
2026-04-22 17:35 55.86105 -3.99464 1513 ft 108 kts 59°
2026-04-22 17:35 55.86546 -3.98395 1515 ft 106 kts 58°
2026-04-22 17:35 55.86932 -3.97457 1511 ft 106 kts 59°
2026-04-22 17:36 55.87369 -3.96388 1525 ft 106 kts 58°
2026-04-22 17:36 55.87806 -3.95330 1522 ft 107 kts 59°
2026-04-22 17:36 55.88248 -3.94260 1518 ft 107 kts 58°
2026-04-22 17:36 55.88688 -3.93189 1511 ft 108 kts 58°
2026-04-22 17:37 55.89133 -3.92094 1524 ft 109 kts 58°
2026-04-22 17:37 55.89581 -3.90999 1517 ft 108 kts 57°
2026-04-22 17:37 55.89993 -3.90006 1530 ft 104 kts 57°
2026-04-22 17:37 55.90422 -3.88972 1526 ft 104 kts 57°
2026-04-22 17:38 55.90854 -3.87921 1525 ft 107 kts 59°
2026-04-22 17:38 55.91293 -3.86839 1522 ft 110 kts 58°
2026-04-22 17:38 55.91745 -3.85726 1530 ft 110 kts 57°
2026-04-22 17:38 55.92197 -3.84623 1531 ft 109 kts 56°
2026-04-22 17:39 55.92641 -3.83536 1539 ft 108 kts 57°
2026-04-22 17:39 55.93078 -3.82475 1529 ft 106 kts 57°
2026-04-22 17:39 55.93964 -3.80293 1539 ft 107 kts 58°
2026-04-22 17:40 55.94407 -3.79216 1529 ft 111 kts 59°
2026-04-22 17:40 55.94857 -3.78107 1544 ft 108 kts 58°
2026-04-22 17:40 55.95296 -3.77039 1538 ft 107 kts 59°
2026-04-22 17:40 55.95743 -3.75937 1535 ft 110 kts 58°
2026-04-22 17:41 55.96186 -3.74863 1535 ft 107 kts 58°
2026-04-22 17:41 55.96499 -3.74087 1533 ft 109 kts 59°
2026-04-22 17:41 55.96941 -3.73001 1545 ft 107 kts 59°
2026-04-22 17:41 55.97377 -3.71932 1549 ft 106 kts 58°
2026-04-22 17:42 55.97810 -3.70871 1549 ft 105 kts 58°
2026-04-22 17:42 55.98242 -3.69815 1544 ft 107 kts 59°
2026-04-22 17:42 55.98676 -3.68709 1543 ft 109 kts 62°
2026-04-22 17:42 55.98856 -3.67425 1542 ft 108 kts 91°
2026-04-22 17:43 55.98778 -3.66113 1556 ft 103 kts 94°
2026-04-22 17:43 55.98713 -3.64843 1539 ft 104 kts 94°
2026-04-22 17:43 55.98650 -3.63537 1546 ft 105 kts 93°
2026-04-22 17:43 55.98591 -3.62234 1547 ft 106 kts 92°
2026-04-22 17:44 55.98536 -3.60936 1545 ft 107 kts 93°
2026-04-22 17:44 55.98482 -3.59615 1546 ft 107 kts 93°
2026-04-22 17:44 55.98427 -3.58299 1546 ft 108 kts 93°
2026-04-22 17:44 55.98371 -3.56973 1546 ft 107 kts 93°
2026-04-22 17:45 55.98314 -3.55633 1551 ft 109 kts 92°
2026-04-22 17:45 55.98257 -3.54281 1547 ft 109 kts 91°
2026-04-22 17:45 55.98203 -3.52951 1544 ft 107 kts 93°
2026-04-22 17:45 55.98143 -3.51625 1551 ft 107 kts 95°
2026-04-22 17:46 55.97956 -3.50417 1542 ft 108 kts 107°
2026-04-22 17:46 55.97680 -3.49163 1542 ft 109 kts 109°
2026-04-22 17:46 55.97393 -3.47917 1552 ft 108 kts 110°
2026-04-22 17:46 55.97106 -3.46679 1547 ft 108 kts 110°
2026-04-22 17:47 55.96813 -3.45415 1544 ft 111 kts 108°
2026-04-22 17:47 55.96526 -3.44134 1414 ft 110 kts 107°
2026-04-22 17:47 55.96244 -3.42858 1254 ft 111 kts 107°
2026-04-22 17:47 55.95958 -3.41573 1077 ft 111 kts 107°
2026-04-22 17:48 55.95680 -3.40306 847 ft 109 kts 104°
2026-04-22 17:48 55.95449 -3.39080 639 ft 94 kts 103°
2026-04-22 17:48 55.95345 -3.38042 454 ft 72 kts 95°
2026-04-22 17:48 55.95310 -3.37318 340 ft 48 kts 95°
2026-04-22 17:49 55.95270 -3.36649 215 ft 55 kts 94°
2026-04-22 17:49 55.95176 -3.36113 168 ft 39 kts 85°
2026-04-22 17:49 55.95186 -3.35751 138 ft 13 kts 25°
2026-04-22 17:49 55.95243 -3.35695 110 ft 0 kts 31°
2026-04-22 17:52 55.95242 -3.35695 113 ft 0 kts 31°
2026-04-22 17:55 55.95242 -3.35696 113 ft 0 kts 31°
2026-04-22 17:59 55.95241 -3.35696 113 ft 0 kts 31°
2026-04-22 18:01 55.95241 -3.35697 113 ft 0 kts 31°
2026-04-22 18:05 55.95240 -3.35697 113 ft 0 kts 31°
2026-04-22 18:07 55.95240 -3.35698 113 ft 0 kts 31°
2026-04-22 18:13 55.95239 -3.35698 113 ft 0 kts 31°
2026-04-22 18:14 55.95239 -3.35699 113 ft 0 kts 31°
2026-04-22 18:21 55.95238 -3.35700 113 ft 0 kts 31°
2026-04-22 18:27 55.95238 -3.35701 113 ft 0 kts 31°
2026-04-22 18:29 55.95237 -3.35701 113 ft 0 kts 31°
2026-04-22 18:35 55.95237 -3.35702 113 ft 0 kts 31°
2026-04-22 18:36 55.95236 -3.35702 113 ft 0 kts 31°
2026-04-22 18:41 55.95236 -3.35703 113 ft 0 kts 31°
2026-04-22 18:44 55.95235 -3.35703 113 ft 0 kts 31°
2026-04-22 18:48 55.95235 -3.35704 113 ft 0 kts 31°
2026-04-22 18:52 55.95234 -3.35704 113 ft 0 kts 31°
2026-04-22 18:54 55.95234 -3.35705 113 ft 0 kts 31°